Time;durP1;ratioP1;P1;durP2;ratioP2;P2;SDS_P1;SDS_P2;PMS_P1;PMS_P2;Temp;Humidity;BMP_temperature;BMP_pressure;BME280_temperature;BME280_humidity;BME280_pressure;Samples;Min_cycle;Max_cycle;Signal;HPM_P1;HPM_P2
2021/11/11 00:02:04;;;;;;;;;;;9.20;99.90;;;;;;5040928;28;19928;-70
2021/11/11 00:04:30;;;;;;;;;;;9.20;99.90;;;;;;5030234;28;19921;-70
2021/11/11 00:07:00;;;;;;;;;;;9.20;99.90;;;;;;5048859;28;19920;-70
2021/11/11 00:09:26;;;;;;;;;;;9.20;99.90;;;;;;5050223;28;20396;-70
2021/11/11 00:11:52;;;;;;;;;;;9.20;99.90;;;;;;5033311;28;19921;-70
2021/11/11 00:14:18;;;;;;;;;;;9.20;99.90;;;;;;5049914;28;19921;-70
2021/11/11 00:16:43;;;;;;;;;;;9.20;99.90;;;;;;5046357;28;19921;-70
2021/11/11 00:19:09;;;;;;;;;;;9.20;99.90;;;;;;5048088;28;20015;-70
2021/11/11 00:21:34;;;;;;;;;;;9.20;99.90;;;;;;5048428;28;19921;-70
2021/11/11 00:24:01;;;;;;;;;;;9.20;99.90;;;;;;5045295;28;20480;-70
2021/11/11 00:26:27;;;;;;;;;;;9.20;99.90;;;;;;5049838;28;19920;-70
2021/11/11 00:28:52;;;;;;;;;;;9.20;99.90;;;;;;5050102;28;20286;-70
2021/11/11 00:31:18;;;;;;;;;;;9.20;99.90;;;;;;5033601;28;19926;-70
2021/11/11 00:33:44;;;;;;;;;;;9.20;99.90;;;;;;5065972;28;19936;-70
2021/11/11 00:36:09;;;;;;;;;;;9.20;99.90;;;;;;5046583;28;20340;-70
2021/11/11 00:38:36;;;;;;;;;;;9.20;99.90;;;;;;5056607;28;19962;-70
2021/11/11 00:41:02;;;;;;;;;;;9.20;99.90;;;;;;5055138;28;20373;-70
2021/11/11 00:43:27;;;;;;;;;;;9.20;99.90;;;;;;5049945;28;19925;-70
2021/11/11 00:45:53;;;;;;;;;;;9.20;99.90;;;;;;5049838;28;19928;-70
2021/11/11 00:48:18;;;;;;;;;;;9.20;99.90;;;;;;5034882;28;19959;-69
2021/11/11 00:50:44;;;;;;;;;;;9.20;99.90;;;;;;5053159;28;20468;-70
2021/11/11 00:53:09;;;;;;;;;;;9.20;99.90;;;;;;5052346;28;19928;-70
2021/11/11 00:55:35;;;;;;;;;;;9.20;99.90;;;;;;5053424;28;19917;-70
2021/11/11 00:58:01;;;;;;;;;;;9.20;99.90;;;;;;5070562;28;20381;-70
2021/11/11 01:00:27;;;;;;;;;;;9.20;99.90;;;;;;5053108;28;19947;-70
2021/11/11 01:02:53;;;;;;;;;;;9.20;99.90;;;;;;5053471;28;19929;-70
2021/11/11 01:05:19;;;;;;;;;;;9.20;99.90;;;;;;5052626;28;20409;-69
2021/11/11 01:07:45;;;;;;;;;;;9.20;99.90;;;;;;5053163;28;19944;-70
2021/11/11 01:10:12;;;;;;;;;;;9.20;99.90;;;;;;5045306;28;20270;-70
2021/11/11 01:12:38;;;;;;;;;;;9.20;99.90;;;;;;5043694;28;19920;-70
2021/11/11 01:15:05;;;;;;;;;;;9.20;99.90;;;;;;5052979;28;20548;-70
2021/11/11 01:17:30;;;;;;;;;;;9.20;99.90;;;;;;5052748;28;19925;-70
2021/11/11 01:19:57;;;;;;;;;;;9.20;99.90;;;;;;5052529;28;19920;-70
2021/11/11 01:22:22;;;;;;;;;;;9.20;99.90;;;;;;5053019;28;19956;-70
2021/11/11 01:24:48;;;;;;;;;;;9.20;99.90;;;;;;5052986;28;20013;-70
2021/11/11 01:27:14;;;;;;;;;;;9.20;99.90;;;;;;5050982;28;19924;-69
2021/11/11 01:29:39;;;;;;;;;;;9.20;99.90;;;;;;5045024;28;19920;-70
2021/11/11 01:32:05;;;;;;;;;;;9.20;99.90;;;;;;5031866;28;20363;-70
2021/11/11 01:34:31;;;;;;;;;;;9.20;99.90;;;;;;5023114;28;19931;-70
2021/11/11 01:36:56;;;;;;;;;;;9.20;99.90;;;;;;5034319;28;19935;-70
2021/11/11 01:39:22;;;;;;;;;;;9.20;99.90;;;;;;5048338;28;20354;-70
2021/11/11 01:41:47;;;;;;;;;;;9.20;99.90;;;;;;5029981;28;19920;-70
2021/11/11 01:44:14;;;;;;;;;;;9.20;99.90;;;;;;5034995;28;19979;-70
2021/11/11 01:46:40;;;;;;;;;;;9.20;99.90;;;;;;5046725;28;19916;-70
2021/11/11 01:49:05;;;;;;;;;;;9.20;99.90;;;;;;5051125;28;19920;-70
2021/11/11 01:51:31;;;;;;;;;;;9.20;99.90;;;;;;5050850;28;19920;-70
2021/11/11 01:53:57;;;;;;;;;;;9.20;99.90;;;;;;5050962;28;19917;-70
2021/11/11 01:56:23;;;;;;;;;;;9.20;99.90;;;;;;5050791;28;20263;-70
2021/11/11 01:58:49;;;;;;;;;;;9.20;99.90;;;;;;5049793;28;19993;-70
2021/11/11 02:01:14;;;;;;;;;;;9.20;99.90;;;;;;5050873;28;20358;-70
2021/11/11 02:03:40;;;;;;;;;;;9.20;99.90;;;;;;5050870;28;19917;-69
2021/11/11 02:06:05;;;;;;;;;;;9.20;99.90;;;;;;5034087;28;20409;-70
2021/11/11 02:08:31;;;;;;;;;;;9.20;99.90;;;;;;5050876;28;19970;-70
2021/11/11 02:10:57;;;;;;;;;;;9.20;99.90;;;;;;5051854;28;19936;-70
2021/11/11 02:13:23;;;;;;;;;;;9.20;99.90;;;;;;5050618;28;19931;-70
2021/11/11 02:15:48;;;;;;;;;;;9.20;99.90;;;;;;5049749;28;19917;-70
2021/11/11 02:18:14;;;;;;;;;;;9.20;99.90;;;;;;5046815;28;19916;-70
2021/11/11 02:20:41;;;;;;;;;;;9.20;99.90;;;;;;5057494;28;19917;-70
2021/11/11 02:23:11;;;;;;;;;;;9.20;99.90;;;;;;5052063;28;19923;-70
2021/11/11 02:25:37;;;;;;;;;;;9.20;99.90;;;;;;5051456;28;19923;-70
2021/11/11 02:28:04;;;;;;;;;;;9.20;99.90;;;;;;5053103;28;19924;-70
2021/11/11 02:30:31;;;;;;;;;;;9.20;99.90;;;;;;5035129;28;19917;-70
2021/11/11 02:32:57;;;;;;;;;;;9.20;99.90;;;;;;5051802;28;19916;-70
2021/11/11 02:35:22;;;;;;;;;;;9.20;99.90;;;;;;5044531;28;20295;-70
2021/11/11 02:37:48;;;;;;;;;;;9.20;99.90;;;;;;5052648;28;20018;-70
2021/11/11 02:40:18;;;;;;;;;;;9.20;99.90;;;;;;5051455;28;19928;-70
2021/11/11 02:42:44;;;;;;;;;;;9.20;99.90;;;;;;5046578;28;20318;-70
2021/11/11 02:45:12;;;;;;;;;;;9.20;99.90;;;;;;5041453;28;19916;-70
2021/11/11 02:47:37;;;;;;;;;;;9.20;99.90;;;;;;5040977;28;19917;-70
2021/11/11 02:50:04;;;;;;;;;;;9.20;99.90;;;;;;5046517;28;19931;-70
2021/11/11 02:52:29;;;;;;;;;;;9.20;99.90;;;;;;5045389;28;19924;-70
2021/11/11 02:54:54;;;;;;;;;;;9.20;99.90;;;;;;5037462;28;19921;-70
2021/11/11 02:57:21;;;;;;;;;;;9.20;99.90;;;;;;5043493;28;19921;-70
2021/11/11 02:59:47;;;;;;;;;;;9.20;99.90;;;;;;5045433;28;19923;-69
2021/11/11 03:02:23;;;;;;;;;;;9.20;99.90;;;;;;5037228;28;19924;-70
2021/11/11 03:04:49;;;;;;;;;;;9.20;99.90;;;;;;5041635;28;19916;-70
2021/11/11 03:07:14;;;;;;;;;;;9.20;99.90;;;;;;5044303;28;20271;-70
2021/11/11 03:09:40;;;;;;;;;;;9.20;99.90;;;;;;5042429;28;19963;-70
2021/11/11 03:12:07;;;;;;;;;;;9.20;99.90;;;;;;5044852;28;19920;-70
2021/11/11 03:14:32;;;;;;;;;;;9.20;99.90;;;;;;5043582;28;19934;-70
2021/11/11 03:16:58;;;;;;;;;;;9.20;99.90;;;;;;5049332;28;19933;-70
2021/11/11 03:19:23;;;;;;;;;;;9.20;99.90;;;;;;5045453;28;19917;-70
2021/11/11 03:21:49;;;;;;;;;;;9.20;99.90;;;;;;5036968;28;19923;-70
2021/11/11 03:24:15;;;;;;;;;;;9.20;99.90;;;;;;5041996;28;19928;-70
2021/11/11 03:26:41;;;;;;;;;;;9.20;99.90;;;;;;5044439;28;19933;-70
2021/11/11 03:29:06;;;;;;;;;;;9.20;99.90;;;;;;5045039;28;19921;-70
2021/11/11 03:31:32;;;;;;;;;;;9.20;99.90;;;;;;5042020;28;20365;-70
2021/11/11 03:33:57;;;;;;;;;;;9.30;99.90;;;;;;5040638;28;19925;-70
2021/11/11 03:36:22;;;;;;;;;;;9.20;99.90;;;;;;5062392;28;19925;-70
2021/11/11 03:38:48;;;;;;;;;;;9.30;99.90;;;;;;5037460;28;19931;-69
2021/11/11 03:41:13;;;;;;;;;;;9.30;99.90;;;;;;5036442;28;19921;-70
2021/11/11 03:43:39;;;;;;;;;;;9.30;99.90;;;;;;5016142;28;19924;-70
2021/11/11 03:46:04;;;;;;;;;;;9.30;99.90;;;;;;5042892;28;19958;-69
2021/11/11 03:48:30;;;;;;;;;;;9.30;99.90;;;;;;5063598;23;20035;-69
2021/11/11 03:50:55;;;;;;;;;;;9.20;99.90;;;;;;5070128;28;19927;-70
2021/11/11 03:53:21;;;;;;;;;;;9.30;99.90;;;;;;5052108;28;20389;-70
2021/11/11 03:55:46;;;;;;;;;;;9.30;99.90;;;;;;5068637;28;19923;-70
2021/11/11 03:58:15;;;;;;;;;;;9.30;99.90;;;;;;5052152;28;20563;-70
2021/11/11 04:00:42;;;;;;;;;;;9.30;99.90;;;;;;5068642;28;19943;-70
2021/11/11 04:03:07;;;;;;;;;;;9.30;99.90;;;;;;5068788;28;20444;-70
2021/11/11 04:05:33;;;;;;;;;;;9.30;99.90;;;;;;5067539;28;19921;-70
2021/11/11 04:07:58;;;;;;;;;;;9.30;99.90;;;;;;5068979;28;19955;-70
2021/11/11 04:10:24;;;;;;;;;;;9.30;99.90;;;;;;5050068;28;19931;-70
2021/11/11 04:12:49;;;;;;;;;;;9.30;99.90;;;;;;5066395;28;19967;-70
2021/11/11 04:15:15;;;;;;;;;;;9.30;99.90;;;;;;5065926;28;20010;-70
2021/11/11 04:17:40;;;;;;;;;;;9.30;99.90;;;;;;5066993;28;20230;-69
2021/11/11 04:20:06;;;;;;;;;;;9.20;99.90;;;;;;5065859;28;19920;-70
2021/11/11 04:22:32;;;;;;;;;;;9.20;99.90;;;;;;5067816;28;19923;-69
2021/11/11 04:25:00;;;;;;;;;;;9.30;99.90;;;;;;5068640;28;19989;-69
2021/11/11 04:30:19;;;;;;;;;;;9.30;99.90;;;;;;5068561;28;19928;-70
2021/11/11 04:32:45;;;;;;;;;;;9.30;99.90;;;;;;5062832;28;19916;-70
2021/11/11 04:35:11;;;;;;;;;;;9.30;99.90;;;;;;5068264;28;20376;-70
2021/11/11 04:40:48;;;;;;;;;;;9.30;99.90;;;;;;5069980;28;20735;-70
2021/11/11 05:04:42;;;;;;;;;;;9.30;99.90;;;;;;5068866;28;19921;-70
2021/11/11 05:07:07;;;;;;;;;;;9.30;99.90;;;;;;5068920;28;19923;-70
2021/11/11 05:09:33;;;;;;;;;;;9.30;99.90;;;;;;5052260;28;20285;-70
2021/11/11 05:11:58;;;;;;;;;;;9.30;99.90;;;;;;5069838;28;19927;-70
2021/11/11 05:14:24;;;;;;;;;;;9.30;99.90;;;;;;5070045;28;20034;-70
2021/11/11 05:16:49;;;;;;;;;;;9.30;99.90;;;;;;5068548;28;20024;-70
2021/11/11 05:19:15;;;;;;;;;;;9.30;99.90;;;;;;5070419;28;19931;-69
2021/11/11 05:21:42;;;;;;;;;;;9.30;99.90;;;;;;5067617;28;19920;-70
2021/11/11 05:24:10;;;;;;;;;;;9.20;99.90;;;;;;5068670;28;19923;-70
2021/11/11 05:26:37;;;;;;;;;;;9.30;99.90;;;;;;5071084;28;19955;-69
2021/11/11 05:29:02;;;;;;;;;;;9.20;99.90;;;;;;5071338;28;19947;-70
2021/11/11 05:31:28;;;;;;;;;;;9.30;99.90;;;;;;5071068;28;20373;-70
2021/11/11 05:33:53;;;;;;;;;;;9.20;99.90;;;;;;5066490;28;19966;-69
2021/11/11 05:36:18;;;;;;;;;;;9.20;99.90;;;;;;5051596;28;20289;-70
2021/11/11 05:38:44;;;;;;;;;;;9.30;99.90;;;;;;5070878;28;19917;-70
2021/11/11 05:41:09;;;;;;;;;;;9.20;99.90;;;;;;5070744;28;19916;-70
2021/11/11 05:43:35;;;;;;;;;;;9.20;99.90;;;;;;5072371;28;20398;-69
2021/11/11 05:46:01;;;;;;;;;;;9.20;99.90;;;;;;5072186;28;19927;-70
2021/11/11 05:48:26;;;;;;;;;;;9.30;99.90;;;;;;5070705;28;19924;-70
2021/11/11 05:50:52;;;;;;;;;;;9.30;99.90;;;;;;5070541;28;19966;-70
2021/11/11 05:53:18;;;;;;;;;;;9.30;99.90;;;;;;5070877;28;20426;-70
2021/11/11 05:55:44;;;;;;;;;;;9.30;99.90;;;;;;5070132;28;19916;-70
2021/11/11 05:58:09;;;;;;;;;;;9.30;99.90;;;;;;5054192;28;19917;-70
2021/11/11 06:00:35;;;;;;;;;;;9.30;99.90;;;;;;5070210;28;19961;-70
2021/11/11 06:03:00;;;;;;;;;;;9.30;99.90;;;;;;5070297;28;19920;-70
2021/11/11 06:05:26;;;;;;;;;;;9.30;99.90;;;;;;5070301;28;19975;-70
2021/11/11 06:07:52;;;;;;;;;;;9.30;99.90;;;;;;5070227;28;19916;-70
2021/11/11 06:10:18;;;;;;;;;;;9.30;99.90;;;;;;5070428;28;20426;-69
2021/11/11 06:12:43;;;;;;;;;;;9.30;99.90;;;;;;5053487;28;20018;-70
2021/11/11 06:15:09;;;;;;;;;;;9.30;99.90;;;;;;5070280;28;20349;-70
2021/11/11 06:17:35;;;;;;;;;;;9.30;99.90;;;;;;5056540;28;19921;-70
2021/11/11 06:20:04;;;;;;;;;;;9.30;99.90;;;;;;5070153;28;19916;-70
2021/11/11 06:22:29;;;;;;;;;;;9.40;99.90;;;;;;5069793;28;19920;-70
2021/11/11 06:24:55;;;;;;;;;;;9.30;99.90;;;;;;5069808;28;19923;-70
2021/11/11 06:27:20;;;;;;;;;;;9.30;99.90;;;;;;5070314;28;20317;-70
2021/11/11 06:29:46;;;;;;;;;;;9.30;99.90;;;;;;5071562;28;20011;-70
2021/11/11 06:32:11;;;;;;;;;;;9.30;99.90;;;;;;5073059;28;19923;-70
2021/11/11 06:34:37;;;;;;;;;;;9.30;99.90;;;;;;5072905;28;20358;-70
2021/11/11 06:37:02;;;;;;;;;;;9.40;99.90;;;;;;5071051;28;19920;-70
2021/11/11 06:39:28;;;;;;;;;;;9.40;99.90;;;;;;5071550;28;19920;-70
2021/11/11 06:41:53;;;;;;;;;;;9.40;99.90;;;;;;5069011;28;19971;-69
2021/11/11 06:44:22;;;;;;;;;;;9.40;99.90;;;;;;5064728;28;19970;-70
2021/11/11 06:46:49;;;;;;;;;;;9.40;99.90;;;;;;5069382;28;19967;-69
2021/11/11 06:49:14;;;;;;;;;;;9.40;99.90;;;;;;5071200;28;19947;-70
2021/11/11 06:51:40;;;;;;;;;;;9.40;99.90;;;;;;5071079;28;19947;-70
2021/11/11 06:54:08;;;;;;;;;;;9.40;99.90;;;;;;5054630;28;19939;-70
2021/11/11 06:56:33;;;;;;;;;;;9.40;99.90;;;;;;5071216;28;20293;-70
2021/11/11 06:58:59;;;;;;;;;;;9.40;99.90;;;;;;5071190;28;19917;-70
2021/11/11 07:01:24;;;;;;;;;;;9.50;99.90;;;;;;5060116;28;19923;-70
2021/11/11 07:03:50;;;;;;;;;;;9.40;99.90;;;;;;5070819;28;19927;-70
2021/11/11 07:06:15;;;;;;;;;;;9.40;99.90;;;;;;5070623;28;19947;-70
2021/11/11 07:08:41;;;;;;;;;;;9.40;99.90;;;;;;5070776;28;19939;-70
2021/11/11 07:11:07;;;;;;;;;;;9.40;99.90;;;;;;5087518;28;19916;-70
2021/11/11 07:13:33;;;;;;;;;;;9.40;99.90;;;;;;5070306;28;20428;-70
2021/11/11 07:16:00;;;;;;;;;;;9.40;99.90;;;;;;5071194;28;19924;-70
2021/11/11 07:18:26;;;;;;;;;;;9.50;99.90;;;;;;5079878;28;20416;-70
2021/11/11 07:20:53;;;;;;;;;;;9.50;99.90;;;;;;5070731;28;19917;-70
2021/11/11 07:23:22;;;;;;;;;;;9.50;99.90;;;;;;5058417;28;19927;-70
2021/11/11 07:25:48;;;;;;;;;;;9.50;99.90;;;;;;5050943;28;19978;-70
2021/11/11 07:28:15;;;;;;;;;;;9.50;99.90;;;;;;5050857;28;19960;-70
2021/11/11 07:30:41;;;;;;;;;;;9.50;99.90;;;;;;5050480;28;19924;-70
2021/11/11 07:33:07;;;;;;;;;;;9.50;99.90;;;;;;5054609;28;20027;-70
2021/11/11 07:35:33;;;;;;;;;;;9.60;99.90;;;;;;5053085;28;20324;-70
2021/11/11 07:38:00;;;;;;;;;;;9.60;99.90;;;;;;5067020;28;20384;-70
2021/11/11 07:40:26;;;;;;;;;;;9.60;99.90;;;;;;5069382;28;19916;-70
2021/11/11 07:42:52;;;;;;;;;;;9.60;99.90;;;;;;5070532;28;20367;-70
2021/11/11 07:45:23;;;;;;;;;;;9.50;99.90;;;;;;5059223;28;20008;-70
2021/11/11 07:47:49;;;;;;;;;;;9.60;99.90;;;;;;5049889;28;19928;-72
2021/11/11 07:50:14;;;;;;;;;;;9.60;99.90;;;;;;5056827;28;19920;-71
2021/11/11 07:52:40;;;;;;;;;;;9.60;99.90;;;;;;5066843;28;19920;-70
2021/11/11 07:55:06;;;;;;;;;;;9.60;99.90;;;;;;5062883;28;19924;-70
2021/11/11 07:57:32;;;;;;;;;;;9.60;99.90;;;;;;5068047;28;19955;-70
2021/11/11 07:59:58;;;;;;;;;;;9.60;99.90;;;;;;5066908;28;20018;-69
2021/11/11 08:02:24;;;;;;;;;;;9.60;99.90;;;;;;5080270;28;20428;-69
2021/11/11 08:04:50;;;;;;;;;;;9.60;99.90;;;;;;5078314;28;20011;-69
2021/11/11 08:07:18;;;;;;;;;;;9.60;99.90;;;;;;5074238;28;19916;-69
2021/11/11 08:09:44;;;;;;;;;;;9.60;99.90;;;;;;5068963;28;19920;-69
2021/11/11 08:12:10;;;;;;;;;;;9.60;99.90;;;;;;5054243;28;19964;-69
2021/11/11 08:14:35;;;;;;;;;;;9.70;99.90;;;;;;5054221;28;19971;-69
2021/11/11 08:17:01;;;;;;;;;;;9.60;99.90;;;;;;5072761;28;20439;-69
2021/11/11 08:19:26;;;;;;;;;;;9.70;99.90;;;;;;5073837;28;19999;-69
2021/11/11 08:21:52;;;;;;;;;;;9.70;99.90;;;;;;5072431;28;20007;-69
2021/11/11 08:24:17;;;;;;;;;;;9.70;99.90;;;;;;5073991;28;19916;-69
2021/11/11 08:26:43;;;;;;;;;;;9.60;99.90;;;;;;5073222;28;19920;-69
2021/11/11 08:29:08;;;;;;;;;;;9.70;99.90;;;;;;5068782;28;19921;-69
2021/11/11 08:31:35;;;;;;;;;;;9.60;99.90;;;;;;5053860;28;19990;-69
2021/11/11 08:34:00;;;;;;;;;;;9.70;99.90;;;;;;5064823;28;19920;-69
2021/11/11 08:36:26;;;;;;;;;;;9.70;99.90;;;;;;5073191;28;19927;-70
2021/11/11 08:38:52;;;;;;;;;;;9.70;99.90;;;;;;5069905;28;19962;-69
2021/11/11 08:41:18;;;;;;;;;;;9.80;99.90;;;;;;5073260;28;19920;-69
2021/11/11 08:43:44;;;;;;;;;;;9.70;99.90;;;;;;5064076;28;19970;-69
2021/11/11 08:46:09;;;;;;;;;;;9.80;99.90;;;;;;5061946;28;19920;-69
2021/11/11 08:48:35;;;;;;;;;;;9.90;99.90;;;;;;5068398;28;20430;-69
2021/11/11 08:51:00;;;;;;;;;;;9.90;99.90;;;;;;5068385;28;19916;-69
2021/11/11 08:53:29;;;;;;;;;;;9.90;99.90;;;;;;5070953;28;19916;-69
2021/11/11 08:55:55;;;;;;;;;;;9.90;99.90;;;;;;5095021;28;19923;-69
2021/11/11 08:58:20;;;;;;;;;;;9.90;99.90;;;;;;5075040;28;19916;-69
2021/11/11 09:00:50;;;;;;;;;;;10.00;99.90;;;;;;5074780;28;19959;-69
2021/11/11 09:03:17;;;;;;;;;;;9.90;99.90;;;;;;5056096;28;19916;-69
2021/11/11 09:05:43;;;;;;;;;;;10.00;99.90;;;;;;5068002;28;19927;-69
2021/11/11 09:08:09;;;;;;;;;;;10.00;99.90;;;;;;5066618;28;20274;-69
2021/11/11 09:10:36;;;;;;;;;;;10.00;99.90;;;;;;5069652;28;19916;-69
2021/11/11 09:13:02;;;;;;;;;;;10.10;99.90;;;;;;5069804;28;20395;-69
2021/11/11 09:15:28;;;;;;;;;;;10.10;99.90;;;;;;5071408;28;19916;-69
2021/11/11 09:17:54;;;;;;;;;;;10.10;99.90;;;;;;5069932;28;20392;-69
2021/11/11 09:20:20;;;;;;;;;;;10.20;99.90;;;;;;5073357;28;19920;-69
2021/11/11 09:22:47;;;;;;;;;;;10.20;99.90;;;;;;5069481;28;19916;-68
2021/11/11 09:25:12;;;;;;;;;;;10.20;99.90;;;;;;5062863;28;19947;-69
2021/11/11 09:27:39;;;;;;;;;;;10.30;99.90;;;;;;5065126;28;19920;-69
2021/11/11 09:30:06;;;;;;;;;;;10.30;99.90;;;;;;5071581;28;19916;-68
2021/11/11 09:32:31;;;;;;;;;;;10.40;99.90;;;;;;5051737;28;19943;-68
2021/11/11 09:34:57;;;;;;;;;;;10.40;99.90;;;;;;5069440;28;20385;-69
2021/11/11 09:37:22;;;;;;;;;;;10.40;99.90;;;;;;5066187;28;20016;-69
2021/11/11 09:39:48;;;;;;;;;;;10.50;99.90;;;;;;5070464;28;19927;-68
2021/11/11 09:42:14;;;;;;;;;;;10.50;99.90;;;;;;5070557;28;19931;-69
2021/11/11 09:44:40;;;;;;;;;;;10.60;99.90;;;;;;5069710;28;19920;-69
2021/11/11 09:47:06;;;;;;;;;;;10.50;99.90;;;;;;5071723;28;19916;-69
2021/11/11 09:49:32;;;;;;;;;;;10.60;99.90;;;;;;5070225;28;20383;-69
2021/11/11 09:51:58;;;;;;;;;;;10.60;99.90;;;;;;5071412;28;20003;-69
2021/11/11 09:59:38;;;;;;;;;;;10.70;99.90;;;;;;5065545;28;20297;-69
2021/11/11 10:02:04;;;;;;;;;;;10.70;99.90;;;;;;5069852;28;19920;-69
2021/11/11 10:04:29;;;;;;;;;;;10.70;99.90;;;;;;5065420;28;19947;-69
2021/11/11 10:06:56;;;;;;;;;;;10.80;99.90;;;;;;5074877;28;20350;-69
2021/11/11 10:09:22;;;;;;;;;;;10.80;99.90;;;;;;5069866;28;19916;-69
2021/11/11 10:11:50;;;;;;;;;;;10.90;99.90;;;;;;5069741;28;20015;-69
2021/11/11 10:14:19;;;;;;;;;;;10.90;99.90;;;;;;5053867;28;19931;-69
2021/11/11 10:16:53;;;;;;;;;;;11.00;99.90;;;;;;5069985;28;19959;-69
2021/11/11 10:19:19;;;;;;;;;;;11.10;99.90;;;;;;5069625;28;19935;-69
2021/11/11 10:21:57;;;;;;;;;;;11.10;99.90;;;;;;5063526;28;19916;-69
2021/11/11 10:24:29;;;;;;;;;;;11.10;99.90;;;;;;5057707;28;20024;-68
2021/11/11 10:27:03;;;;;;;;;;;11.10;99.90;;;;;;5064102;28;19942;-69
2021/11/11 10:29:34;;;;;;;;;;;11.20;99.90;;;;;;5055402;28;20404;-69
2021/11/11 10:32:00;;;;;;;;;;;11.30;99.90;;;;;;5054438;28;19935;-69
2021/11/11 10:34:25;;;;;;;;;;;11.40;99.90;;;;;;5060411;28;19920;-69
2021/11/11 10:36:52;;;;;;;;;;;11.40;99.90;;;;;;5067964;28;20015;-68
2021/11/11 10:39:25;;;;;;;;;;;11.50;99.90;;;;;;5066925;28;19927;-69
2021/11/11 10:41:52;;;;;;;;;;;11.50;99.90;;;;;;5069051;28;19916;-69
2021/11/11 10:44:27;;;;;;;;;;;11.50;99.90;;;;;;5064058;28;20293;-69
2021/11/11 10:46:54;;;;;;;;;;;11.50;99.90;;;;;;5060757;28;19924;-69
2021/11/11 10:49:22;;;;;;;;;;;11.50;99.90;;;;;;5063766;28;19924;-69
2021/11/11 10:51:47;;;;;;;;;;;11.50;99.90;;;;;;5065171;28;20008;-69
2021/11/11 10:54:13;;;;;;;;;;;11.60;99.90;;;;;;5069647;28;20438;-69
2021/11/11 10:56:45;;;;;;;;;;;11.60;99.90;;;;;;5067844;28;19935;-69
2021/11/11 10:59:12;;;;;;;;;;;11.60;99.90;;;;;;5065140;28;19926;-69
2021/11/11 11:01:37;;;;;;;;;;;11.70;99.90;;;;;;5067567;28;20023;-69
2021/11/11 11:04:03;;;;;;;;;;;11.70;99.90;;;;;;5068420;28;20015;-69
2021/11/11 11:06:29;;;;;;;;;;;11.70;99.90;;;;;;5071445;28;19924;-69
2021/11/11 11:08:57;;;;;;;;;;;11.60;99.90;;;;;;5068296;28;19920;-69
2021/11/11 11:11:29;;;;;;;;;;;11.60;99.90;;;;;;5068104;28;20019;-69
2021/11/11 11:14:14;;;;;;;;;;;11.60;99.90;;;;;;5067337;28;19920;-69
2021/11/11 11:16:40;;;;;;;;;;;11.60;99.90;;;;;;5064865;28;19928;-69
2021/11/11 11:19:10;;;;;;;;;;;11.60;99.90;;;;;;5070827;28;19916;-69
2021/11/11 11:21:48;;;;;;;;;;;11.60;99.90;;;;;;5050465;28;20575;-69
2021/11/11 11:24:19;;;;;;;;;;;11.60;99.90;;;;;;5070503;28;19971;-69
2021/11/11 11:26:46;;;;;;;;;;;11.50;99.90;;;;;;5067483;28;20290;-69
2021/11/11 11:32:08;;;;;;;;;;;11.50;99.90;;;;;;5066610;28;20010;-69
2021/11/11 11:34:36;;;;;;;;;;;11.50;99.90;;;;;;5070557;28;19916;-69
2021/11/11 11:37:03;;;;;;;;;;;11.50;99.90;;;;;;5068702;28;19928;-69
2021/11/11 11:39:32;;;;;;;;;;;11.60;99.90;;;;;;5068283;28;20367;-69
2021/11/11 11:42:01;;;;;;;;;;;11.60;99.90;;;;;;5077967;28;20384;-69
2021/11/11 11:44:51;;;;;;;;;;;11.60;99.90;;;;;;5073510;28;19916;-69
2021/11/11 11:47:23;;;;;;;;;;;11.50;99.90;;;;;;5084652;28;19917;-69
2021/11/11 11:49:55;;;;;;;;;;;11.60;99.90;;;;;;5069365;28;19936;-69
2021/11/11 11:52:22;;;;;;;;;;;11.50;99.90;;;;;;5069565;28;20273;-69
2021/11/11 11:54:54;;;;;;;;;;;11.60;99.90;;;;;;5058385;28;19974;-69
2021/11/11 11:57:24;;;;;;;;;;;11.60;99.90;;;;;;5063405;28;19924;-69
2021/11/11 11:59:56;;;;;;;;;;;11.60;99.90;;;;;;5065969;28;19950;-68
2021/11/11 12:02:31;;;;;;;;;;;11.60;99.90;;;;;;5061039;28;19969;-68
2021/11/11 12:13:02;;;;;;;;;;;11.60;99.90;;;;;;5062384;28;19920;-68
2021/11/11 12:15:52;;;;;;;;;;;11.60;99.90;;;;;;5063615;28;19921;-68
2021/11/11 12:40:20;;;;;;;;;;;11.70;99.90;;;;;;5067021;28;19916;-68
2021/11/11 12:42:55;;;;;;;;;;;11.70;99.90;;;;;;5064505;28;20348;-68
2021/11/11 12:45:22;;;;;;;;;;;11.70;99.90;;;;;;5054200;28;20019;-68
2021/11/11 12:47:52;;;;;;;;;;;11.80;99.90;;;;;;5066990;28;19923;-67
2021/11/11 12:50:36;;;;;;;;;;;11.80;99.90;;;;;;5063089;28;19946;-67
2021/11/11 12:53:11;;;;;;;;;;;11.80;99.90;;;;;;5060605;28;20262;-67
2021/11/11 12:55:52;;;;;;;;;;;11.80;99.90;;;;;;5062265;28;19916;-67
2021/11/11 12:58:20;;;;;;;;;;;11.80;99.90;;;;;;5059311;28;19924;-67
2021/11/11 13:00:48;;;;;;;;;;;11.80;99.90;;;;;;5060225;28;20003;-68
2021/11/11 13:03:15;;;;;;;;;;;11.80;99.90;;;;;;5064160;28;19916;-68
2021/11/11 13:05:54;;;;;;;;;;;11.70;99.90;;;;;;5069964;28;19920;-68
2021/11/11 13:08:40;;;;;;;;;;;11.70;99.90;;;;;;5069020;28;20093;-67
2021/11/11 13:11:05;;;;;;;;;;;11.60;99.90;;;;;;5067460;28;19917;-67
2021/11/11 13:13:32;;;;;;;;;;;11.70;99.90;;;;;;5067498;28;19981;-67
2021/11/11 13:16:17;;;;;;;;;;;11.60;99.90;;;;;;5069179;28;19920;-67
2021/11/11 13:18:45;;;;;;;;;;;11.60;99.90;;;;;;5064632;28;19924;-68
2021/11/11 13:21:12;;;;;;;;;;;11.50;99.90;;;;;;5058107;28;19969;-70
2021/11/11 13:23:46;;;;;;;;;;;11.50;99.90;;;;;;5071234;28;19924;-69
2021/11/11 14:00:29;;;;;;;;;;;11.50;99.90;;;;;;5072216;28;19924;-67
2021/11/11 14:03:27;;;;;;;;;;;11.50;99.90;;;;;;5065113;28;19920;-68
